createdAt,value
2018-09-11T00:01:49.120Z,18.00
2018-09-11T00:04:21.670Z,18.00
2018-09-11T00:06:52.029Z,17.90
2018-09-11T00:09:22.111Z,18.00
2018-09-11T00:11:52.250Z,17.90
2018-09-11T00:14:23.617Z,17.90
2018-09-11T00:16:53.976Z,17.90
2018-09-11T00:19:25.020Z,17.90
2018-09-11T00:21:58.190Z,17.90
2018-09-11T00:24:30.979Z,17.90
2018-09-11T00:27:06.943Z,17.90
2018-09-11T00:29:37.150Z,17.90
2018-09-11T00:32:08.650Z,17.90
2018-09-11T00:34:39.983Z,17.90
2018-09-11T00:37:10.790Z,17.90
2018-09-11T00:39:42.680Z,17.90
2018-09-11T00:42:14.830Z,17.90
2018-09-11T00:44:45.229Z,18.00
2018-09-11T00:47:17.429Z,18.00
2018-09-11T00:49:47.588Z,18.00
2018-09-11T00:52:18.239Z,18.00
2018-09-11T00:54:48.420Z,17.90
2018-09-11T00:57:22.092Z,17.90
2018-09-11T00:59:52.699Z,17.90
2018-09-11T01:02:24.440Z,17.80
2018-09-11T01:04:57.430Z,17.80
2018-09-11T01:07:27.680Z,17.80
2018-09-11T01:09:58.813Z,17.80
2018-09-11T01:12:31.948Z,17.80
2018-09-11T01:15:02.491Z,17.70
2018-09-11T01:17:33.639Z,17.80
2018-09-11T01:20:05.280Z,17.80
2018-09-11T01:22:37.270Z,17.80
2018-09-11T01:25:11.560Z,17.80
2018-09-11T01:27:43.208Z,17.80
2018-09-11T01:30:17.419Z,17.70
2018-09-11T01:32:49.500Z,17.70
2018-09-11T01:35:28.650Z,17.70
2018-09-11T01:37:58.859Z,17.70
2018-09-11T01:40:30.364Z,17.70
2018-09-11T01:43:09.442Z,17.70
2018-09-11T01:45:49.080Z,17.60
2018-09-11T01:48:20.642Z,17.60
2018-09-11T01:50:59.793Z,17.60
2018-09-11T01:53:31.473Z,17.60
2018-09-11T01:56:11.431Z,17.60
2018-09-11T01:58:42.995Z,17.60
2018-09-11T02:01:16.092Z,17.60
2018-09-11T02:03:46.332Z,17.60
2018-09-11T02:06:18.463Z,17.60
2018-09-11T02:08:48.612Z,17.60
2018-09-11T02:11:27.547Z,17.70
2018-09-11T02:13:58.746Z,17.60
2018-09-11T02:16:37.985Z,17.60
2018-09-11T02:19:09.494Z,17.60
2018-09-11T02:21:41.914Z,17.60
2018-09-11T02:24:11.945Z,17.60
2018-09-11T02:26:43.454Z,17.60
2018-09-11T02:29:17.774Z,17.60
2018-09-11T02:31:47.734Z,17.60
2018-09-11T02:34:17.926Z,17.50
2018-09-11T02:36:49.768Z,17.50
2018-09-11T02:39:30.016Z,17.50
2018-09-11T02:42:07.043Z,17.60
2018-09-11T02:44:39.063Z,17.50
2018-09-11T02:47:11.732Z,17.50
2018-09-11T02:49:43.422Z,17.50
2018-09-11T02:52:15.043Z,17.50
2018-09-11T02:54:55.122Z,17.50
2018-09-11T02:57:26.559Z,17.50
2018-09-11T03:00:05.605Z,17.50
2018-09-11T03:02:36.666Z,17.50
2018-09-11T03:05:06.947Z,17.50
2018-09-11T03:07:45.592Z,17.50
2018-09-11T03:10:17.682Z,17.50
2018-09-11T03:12:49.383Z,17.50
2018-09-11T03:15:28.674Z,17.40
2018-09-11T03:18:00.323Z,17.40
2018-09-11T03:20:38.948Z,17.40
2018-09-11T03:23:18.317Z,17.50
2018-09-11T03:25:57.565Z,17.50
2018-09-11T03:28:30.174Z,17.50
2018-09-11T03:31:01.963Z,17.50
2018-09-11T03:33:34.204Z,17.50
2018-09-11T03:36:06.084Z,17.50
2018-09-11T03:38:37.763Z,17.50
2018-09-11T03:41:09.484Z,17.50
2018-09-11T03:43:42.039Z,17.50
2018-09-11T06:45:19.151Z,19.70
2018-09-11T06:47:50.347Z,19.60
2018-09-11T06:50:21.478Z,19.50
2018-09-11T06:52:53.218Z,19.50
2018-09-11T06:55:24.720Z,19.50
2018-09-11T06:57:56.026Z,19.50
2018-09-11T07:00:26.029Z,19.40
2018-09-11T07:02:56.028Z,19.50
2018-09-11T07:05:25.703Z,19.50
2018-09-11T07:08:00.378Z,19.60
2018-09-11T07:10:31.578Z,19.60
2018-09-11T07:13:02.173Z,19.70
2018-09-11T07:15:32.288Z,19.80
2018-09-11T07:18:03.292Z,19.90
2018-09-11T07:20:33.280Z,19.90
2018-09-11T07:23:02.960Z,20.00
2018-09-11T07:25:33.109Z,20.00
2018-09-11T07:28:03.189Z,20.00
2018-09-11T07:30:33.279Z,19.90
2018-09-11T07:33:04.779Z,20.00
2018-09-11T07:35:43.748Z,20.10
2018-09-11T07:38:17.719Z,20.10
2018-09-11T07:40:49.531Z,20.10
2018-09-11T07:43:28.592Z,20.10
2018-09-11T07:45:59.036Z,20.20
2018-09-11T07:48:31.152Z,20.30
2018-09-11T07:51:04.508Z,20.40
2018-09-11T07:53:44.055Z,20.40
2018-09-11T07:56:23.036Z,20.50
2018-09-11T07:59:02.361Z,20.50
2018-09-11T08:01:41.856Z,20.50
2018-09-11T08:04:20.183Z,20.50
2018-09-11T08:06:59.482Z,20.50
2018-09-11T08:09:38.851Z,20.60
2018-09-11T08:12:17.882Z,20.60
2018-09-11T08:14:57.021Z,20.60
2018-09-11T08:17:35.830Z,20.60
2018-09-11T08:20:14.849Z,20.60
2018-09-11T08:22:53.748Z,20.60
2018-09-11T08:25:30.412Z,20.60
2018-09-11T08:28:09.575Z,20.70
2018-09-11T08:30:48.206Z,20.70
2018-09-11T08:33:26.492Z,20.80
2018-09-11T08:36:03.875Z,20.80
2018-09-11T08:38:40.606Z,20.90
2018-09-11T08:41:20.650Z,21.00
2018-09-11T08:43:59.433Z,21.00
2018-09-11T08:46:35.548Z,21.10
2018-09-11T08:49:14.862Z,21.20
2018-09-11T08:51:50.323Z,21.20
2018-09-11T08:54:24.674Z,21.30
2018-09-11T08:57:01.657Z,21.30
2018-09-11T08:59:40.718Z,21.40
2018-09-11T09:02:19.813Z,21.40
2018-09-11T09:04:57.089Z,21.50
2018-09-11T09:07:34.401Z,21.60
2018-09-11T09:10:09.738Z,21.60
2018-09-11T09:12:49.299Z,21.70
2018-09-11T09:15:28.213Z,21.70
2018-09-11T09:18:03.635Z,21.90
2018-09-11T09:20:42.588Z,21.90
2018-09-11T09:23:20.010Z,22.10
2018-09-11T09:25:58.109Z,22.20
2018-09-11T09:28:34.230Z,22.30
2018-09-11T09:31:13.504Z,22.40
2018-09-11T09:33:49.372Z,22.50
2018-09-11T09:36:29.160Z,22.70
2018-09-11T09:39:08.753Z,22.90
2018-09-11T09:41:46.606Z,23.20
2018-09-11T09:44:26.902Z,23.40
2018-09-11T09:47:06.421Z,23.80
2018-09-11T09:49:45.604Z,24.10
2018-09-11T09:52:19.594Z,24.40
2018-09-11T09:54:54.819Z,24.70
2018-09-11T09:57:34.357Z,24.80
2018-09-11T10:00:18.471Z,25.00
2018-09-11T10:02:55.732Z,25.10
2018-09-11T10:05:34.691Z,25.30
2018-09-11T10:08:13.966Z,25.40
2018-09-11T10:10:53.040Z,25.50
2018-09-11T10:13:32.039Z,25.60
2018-09-11T10:16:04.878Z,25.70
2018-09-11T10:18:41.028Z,25.80
2018-09-11T10:21:17.626Z,25.80
2018-09-11T10:23:56.867Z,26.10
2018-09-11T10:26:32.605Z,26.30
2018-09-11T10:29:09.775Z,26.40
2018-09-11T10:31:45.371Z,26.60
2018-09-11T10:34:21.085Z,26.90
2018-09-11T10:37:00.507Z,27.20
2018-09-11T10:39:39.688Z,27.40
2018-09-11T10:42:19.849Z,27.40
2018-09-11T10:44:58.821Z,27.60
2018-09-11T10:47:37.681Z,27.90
2018-09-11T10:50:11.538Z,28.20
2018-09-11T10:52:43.068Z,28.50
2018-09-11T10:55:20.925Z,28.90
2018-09-11T10:57:52.455Z,29.00
2018-09-11T11:00:27.509Z,29.20
2018-09-11T11:03:06.502Z,29.50
2018-09-11T11:05:45.701Z,29.60
2018-09-11T11:08:24.915Z,29.90
2018-09-11T11:11:03.917Z,30.10
2018-09-11T11:13:41.678Z,30.30
2018-09-11T11:16:20.680Z,30.20
2018-09-11T11:19:00.122Z,30.20
2018-09-11T11:21:38.490Z,30.10
2018-09-11T11:24:17.416Z,29.90
2018-09-11T11:26:56.585Z,29.70
2018-09-11T11:29:36.172Z,29.30
2018-09-11T11:32:15.658Z,29.10
2018-09-11T11:34:47.462Z,29.10
2018-09-11T11:37:23.923Z,29.20
2018-09-11T11:40:00.401Z,29.50
2018-09-11T11:42:39.501Z,29.70
2018-09-11T11:45:18.566Z,30.00
2018-09-11T11:47:57.765Z,30.10
2018-09-11T11:50:36.565Z,30.40
2018-09-11T11:53:12.579Z,30.50
2018-09-11T11:55:44.919Z,30.60
2018-09-11T11:58:20.067Z,30.60
2018-09-11T12:00:59.215Z,30.30
2018-09-11T12:03:38.207Z,30.20
2018-09-11T12:06:17.471Z,29.90
2018-09-11T12:08:55.247Z,29.70
2018-09-11T12:11:30.424Z,29.60
2018-09-11T12:14:08.463Z,29.50
2018-09-11T12:16:45.613Z,29.50
2018-09-11T12:19:23.501Z,29.20
2018-09-11T12:22:01.879Z,29.10
2018-09-11T12:24:40.823Z,28.90
2018-09-11T12:27:18.230Z,28.80
2018-09-11T12:29:58.248Z,28.80
2018-09-11T12:32:37.418Z,28.70
2018-09-11T12:35:13.864Z,28.60
2018-09-11T12:37:52.756Z,28.50
2018-09-11T12:40:29.694Z,28.30
2018-09-11T12:43:00.865Z,28.10
2018-09-11T12:45:39.958Z,28.00
2018-09-11T12:48:19.275Z,27.90
2018-09-11T12:50:56.625Z,27.90
2018-09-11T12:53:33.591Z,27.90
2018-09-11T12:56:12.531Z,27.80
2018-09-11T12:58:50.369Z,27.90
2018-09-11T13:01:29.452Z,27.80
2018-09-11T13:04:09.418Z,27.70
2018-09-11T13:06:48.870Z,27.60
2018-09-11T13:09:27.881Z,27.60
2018-09-11T13:12:06.659Z,27.50
2018-09-11T13:14:45.668Z,27.40
2018-09-11T13:17:24.743Z,27.40
2018-09-11T13:20:01.091Z,27.30
2018-09-11T13:22:37.387Z,27.20
2018-09-11T13:25:13.760Z,27.10
2018-09-11T13:27:45.300Z,27.10
2018-09-11T13:30:20.832Z,27.10
2018-09-11T13:32:59.771Z,27.00
2018-09-11T13:35:38.886Z,27.00
2018-09-11T13:38:18.343Z,26.90
2018-09-11T13:40:57.393Z,27.00
2018-09-11T13:43:36.713Z,27.00
2018-09-11T13:46:16.925Z,27.00
2018-09-11T13:48:56.351Z,27.00
2018-09-11T13:51:35.853Z,27.10
2018-09-11T13:54:07.619Z,27.10
2018-09-11T13:56:43.994Z,27.10
2018-09-11T13:59:18.124Z,27.10
2018-09-11T14:01:57.162Z,27.10
2018-09-11T14:04:36.526Z,27.00
2018-09-11T14:07:15.646Z,27.00
2018-09-11T14:09:54.883Z,27.00
2018-09-11T14:12:34.188Z,26.90
2018-09-11T14:15:13.527Z,26.80
2018-09-11T14:17:51.476Z,26.80
2018-09-11T14:20:30.378Z,26.80
2018-09-11T14:23:09.414Z,26.70
2018-09-11T14:25:48.794Z,26.70
2018-09-11T14:28:28.144Z,26.60
2018-09-11T14:31:07.324Z,26.60
2018-09-11T14:33:45.247Z,26.60
2018-09-11T14:36:24.309Z,26.50
2018-09-11T14:39:03.189Z,26.50
2018-09-11T14:41:42.300Z,26.50
2018-09-11T14:45:47.492Z,26.60
2018-09-11T14:48:27.012Z,26.60
2018-09-11T14:51:06.456Z,26.60
2018-09-11T14:53:43.449Z,26.50
2018-09-11T14:56:23.162Z,26.50
2018-09-11T14:59:02.704Z,26.40
2018-09-11T15:01:41.724Z,26.30
2018-09-11T15:04:19.923Z,26.20
2018-09-11T15:06:59.550Z,26.10
2018-09-11T15:09:36.216Z,26.00
2018-09-11T15:12:15.239Z,25.80
2018-09-11T15:14:54.280Z,25.80
2018-09-11T15:17:33.185Z,25.80
2018-09-11T15:20:11.454Z,25.80
2018-09-11T15:22:51.302Z,25.90
2018-09-11T15:25:30.342Z,25.80
2018-09-11T15:28:09.843Z,25.80
2018-09-11T15:30:50.037Z,25.70
2018-09-11T15:33:29.168Z,25.70
2018-09-11T15:36:08.580Z,25.70
2018-09-11T15:38:48.194Z,25.60
2018-09-11T15:41:27.979Z,25.60
2018-09-11T15:44:03.847Z,25.50
2018-09-11T15:46:43.494Z,25.50
2018-09-11T15:49:22.572Z,25.50
2018-09-11T15:52:01.412Z,25.40
2018-09-11T15:54:40.662Z,25.40
2018-09-11T15:57:19.582Z,25.30
2018-09-11T15:59:53.364Z,25.30
2018-09-11T16:02:28.386Z,25.20
2018-09-11T16:05:08.253Z,25.10
2018-09-11T16:07:48.399Z,25.10
2018-09-11T16:10:30.319Z,25.10
2018-09-11T16:13:08.949Z,25.00
2018-09-11T16:15:48.042Z,24.90
2018-09-11T16:18:27.743Z,24.90
2018-09-11T16:21:06.096Z,24.90
2018-09-11T16:23:47.354Z,24.80
2018-09-11T16:26:26.399Z,24.70
2018-09-11T16:29:05.538Z,24.70
2018-09-11T16:31:42.642Z,24.60
2018-09-11T16:34:21.641Z,24.60
2018-09-11T16:37:00.992Z,24.50
2018-09-11T16:39:38.067Z,24.50
2018-09-11T16:42:17.214Z,24.50
2018-09-11T16:44:54.138Z,24.40
2018-09-11T16:47:32.992Z,24.40
2018-09-11T16:50:11.759Z,24.40
2018-09-11T16:52:48.010Z,24.30
2018-09-11T16:55:29.636Z,24.30
2018-09-11T16:58:05.448Z,24.30
2018-09-11T17:00:44.539Z,24.20
2018-09-11T17:03:22.653Z,24.20
2018-09-11T17:06:02.978Z,24.10
2018-09-11T17:08:42.736Z,24.00
2018-09-11T17:11:18.645Z,23.90
2018-09-11T17:13:54.820Z,23.80
2018-09-11T17:16:33.974Z,23.80
2018-09-11T17:19:13.230Z,23.70
2018-09-11T17:21:52.697Z,23.60
2018-09-11T17:24:29.008Z,23.50
2018-09-11T17:27:07.425Z,23.50
2018-09-11T17:29:46.608Z,23.40
2018-09-11T17:32:25.652Z,23.40
2018-09-11T17:35:04.924Z,23.30
2018-09-11T17:37:43.987Z,23.30
2018-09-11T17:40:22.972Z,23.20
2018-09-11T17:43:01.993Z,23.20
2018-09-11T17:45:41.145Z,23.10
2018-09-11T17:48:20.549Z,23.10
2018-09-11T17:51:00.985Z,23.00
2018-09-11T17:53:40.888Z,22.90
2018-09-11T17:56:16.612Z,22.90
2018-09-11T17:58:55.953Z,22.80
2018-09-11T18:01:35.149Z,22.80
2018-09-11T18:04:06.463Z,22.70
2018-09-11T18:06:40.894Z,22.70
2018-09-11T18:09:20.201Z,22.70
2018-09-11T18:11:59.698Z,22.60
2018-09-11T18:14:38.173Z,22.60
2018-09-11T18:17:17.159Z,22.50
2018-09-11T18:19:54.376Z,22.50
2018-09-11T18:22:33.460Z,22.40
2018-09-11T18:25:13.286Z,22.40
2018-09-11T18:27:50.898Z,22.40
2018-09-11T18:30:30.462Z,22.30
2018-09-11T18:33:10.236Z,22.20
2018-09-11T18:35:49.428Z,22.20
2018-09-11T18:38:28.785Z,22.20
2018-09-11T18:41:07.784Z,22.10
2018-09-11T18:43:40.037Z,22.10
2018-09-11T18:46:11.854Z,22.00
2018-09-11T18:48:49.013Z,21.90
2018-09-11T18:51:28.331Z,21.90
2018-09-11T18:54:07.757Z,21.90
2018-09-11T18:56:46.288Z,21.80
2018-09-11T18:59:24.271Z,21.80
2018-09-11T19:02:03.572Z,21.70
2018-09-11T19:04:42.581Z,21.70
2018-09-11T19:07:22.243Z,21.70
2018-09-11T19:10:01.462Z,21.60
2018-09-11T19:12:38.645Z,21.60
2018-09-11T19:15:15.775Z,21.60
2018-09-11T19:17:54.729Z,21.60
2018-09-11T19:20:30.867Z,21.50
2018-09-11T19:23:08.044Z,21.50
2018-09-11T19:25:46.894Z,21.40
2018-09-11T19:28:26.592Z,21.40
2018-09-11T19:31:05.792Z,21.40
2018-09-11T19:33:44.874Z,21.40
2018-09-11T19:36:23.844Z,21.30
2018-09-11T19:39:03.231Z,21.30
2018-09-11T19:41:42.251Z,21.30
2018-09-11T19:44:21.394Z,21.20
2018-09-11T19:47:05.311Z,21.20
2018-09-11T19:49:40.143Z,21.20
2018-09-11T19:52:12.552Z,21.10
2018-09-11T19:54:46.035Z,21.10
2018-09-11T19:57:26.662Z,21.10
2018-09-11T20:00:06.493Z,21.00
2018-09-11T20:02:48.560Z,20.90
2018-09-11T20:05:24.776Z,20.90
2018-09-11T20:08:08.404Z,20.90
2018-09-11T20:10:47.526Z,20.80
2018-09-11T20:13:21.825Z,20.80
2018-09-11T20:15:52.924Z,20.80
2018-09-11T20:18:24.750Z,20.80
2018-09-11T20:20:59.480Z,20.80
2018-09-11T20:23:31.071Z,20.70
2018-09-11T20:26:03.421Z,20.70
2018-09-11T20:28:42.979Z,20.60
2018-09-11T20:31:21.959Z,20.70
2018-09-11T20:33:53.479Z,20.60
2018-09-11T20:36:31.089Z,20.60
2018-09-11T20:39:10.859Z,20.60
2018-09-11T20:41:49.842Z,20.60
2018-09-11T20:44:28.785Z,20.60
2018-09-11T20:47:00.781Z,20.50
2018-09-11T20:49:32.191Z,20.50
2018-09-11T20:52:03.449Z,20.50
2018-09-11T20:54:44.130Z,20.50
2018-09-11T20:57:13.921Z,20.50
2018-09-11T20:59:44.930Z,20.50
2018-09-11T21:02:17.258Z,20.50
2018-09-11T21:04:49.850Z,20.40
2018-09-11T21:07:22.501Z,20.40
2018-09-11T21:09:55.930Z,20.40
2018-09-11T21:12:29.503Z,20.30
2018-09-11T21:15:00.930Z,20.30
2018-09-11T21:17:33.752Z,20.30
2018-09-11T21:20:06.039Z,20.30
2018-09-11T21:22:41.150Z,20.30
2018-09-11T21:25:12.469Z,20.30
2018-09-11T21:27:44.230Z,20.30
2018-09-11T21:30:15.213Z,20.30
2018-09-11T21:32:47.769Z,20.20
2018-09-11T21:35:17.949Z,20.20
2018-09-11T21:37:51.820Z,20.20
2018-09-11T21:40:25.520Z,20.20
2018-09-11T21:43:04.720Z,20.20
2018-09-11T21:45:38.099Z,20.20
2018-09-11T21:48:14.564Z,20.20
2018-09-11T21:50:49.220Z,20.10
2018-09-11T21:53:23.601Z,20.10
2018-09-11T21:56:04.902Z,20.10
2018-09-11T21:58:54.641Z,20.00
2018-09-11T22:01:34.089Z,20.00
2018-09-11T22:04:07.284Z,20.00
2018-09-11T22:06:45.927Z,20.00
2018-09-11T22:09:19.019Z,19.90
2018-09-11T22:11:50.525Z,19.90
2018-09-11T22:14:27.830Z,19.90
2018-09-11T22:17:02.975Z,19.80
2018-09-11T22:19:41.915Z,19.90
2018-09-11T22:22:17.029Z,19.80
2018-09-11T22:24:53.868Z,19.80
2018-09-11T22:27:28.719Z,19.80
2018-09-11T22:29:59.580Z,19.80
2018-09-11T22:32:29.897Z,19.80
2018-09-11T22:35:01.190Z,19.70
2018-09-11T22:37:31.268Z,19.70
2018-09-11T22:40:02.943Z,19.70
2018-09-11T22:42:34.299Z,19.70
2018-09-11T22:45:06.329Z,19.60
2018-09-11T22:47:38.879Z,19.60
2018-09-11T22:50:10.890Z,19.60
2018-09-11T22:52:41.490Z,19.60
2018-09-11T22:55:11.832Z,19.60
2018-09-11T22:57:43.041Z,19.60
2018-09-11T23:00:16.499Z,19.70
2018-09-11T23:02:46.369Z,19.60
2018-09-11T23:05:16.820Z,19.60
2018-09-11T23:07:46.999Z,19.60
2018-09-11T23:10:16.950Z,19.60
2018-09-11T23:12:47.448Z,19.50
2018-09-11T23:15:20.420Z,19.50
2018-09-11T23:17:50.850Z,19.40
2018-09-11T23:20:21.448Z,19.40
2018-09-11T23:22:52.207Z,19.40
2018-09-11T23:25:22.320Z,19.30
2018-09-11T23:27:54.849Z,19.30
2018-09-11T23:30:25.507Z,19.30
2018-09-11T23:32:56.890Z,19.30
2018-09-11T23:35:28.929Z,19.20
2018-09-11T23:38:02.442Z,19.20
2018-09-11T23:40:42.238Z,19.20
2018-09-11T23:43:13.598Z,19.20
2018-09-11T23:45:49.858Z,19.20
2018-09-11T23:48:20.922Z,19.20
2018-09-11T23:50:52.479Z,19.10
2018-09-11T23:53:24.173Z,19.10
2018-09-11T23:56:06.654Z,19.10
2018-09-11T23:58:51.927Z,19.10
